createdAt,value
2023-01-18T00:01:53.282Z,8.99
2023-01-18T00:04:22.617Z,8.94
2023-01-18T00:07:14.784Z,9.03
2023-01-18T00:09:41.969Z,9.00
2023-01-18T00:12:09.112Z,9.04
2023-01-18T00:14:36.289Z,9.01
2023-01-18T00:17:03.498Z,9.05
2023-01-18T00:19:30.774Z,9.04
2023-01-18T00:21:58.013Z,9.07
2023-01-18T00:24:28.518Z,9.07
2023-01-18T00:26:55.705Z,9.07
2023-01-18T00:29:22.901Z,9.05
2023-01-18T00:31:50.385Z,9.03
2023-01-18T00:34:20.146Z,8.99
2023-01-18T00:36:48.907Z,8.90
2023-01-18T00:39:18.647Z,8.90
2023-01-18T00:42:04.430Z,8.84
2023-01-18T00:44:34.015Z,8.87
2023-01-18T00:47:04.152Z,8.85
2023-01-18T00:49:33.606Z,8.85
2023-01-18T00:52:00.755Z,8.79
2023-01-18T00:54:28.016Z,8.83
2023-01-18T00:56:55.208Z,8.79
2023-01-18T00:59:22.409Z,8.74
2023-01-18T01:01:49.760Z,8.70
2023-01-18T01:04:35.425Z,8.73
2023-01-18T01:07:02.656Z,8.70
2023-01-18T01:09:30.351Z,8.67
2023-01-18T01:12:17.078Z,8.63
2023-01-18T01:15:07.492Z,8.63
2023-01-18T01:17:55.564Z,8.62
2023-01-18T01:20:41.970Z,8.63
2023-01-18T01:23:38.959Z,8.64
2023-01-18T01:26:08.294Z,8.62
2023-01-18T01:28:40.605Z,8.59
2023-01-18T01:31:13.565Z,8.59
2023-01-18T01:33:41.445Z,8.56
2023-01-18T01:36:13.264Z,8.55
2023-01-18T01:38:44.200Z,8.55
2023-01-18T01:41:15.385Z,8.55
2023-01-18T01:43:50.657Z,8.55
2023-01-18T01:46:45.426Z,8.49
2023-01-18T01:49:17.459Z,8.43
2023-01-18T01:51:47.101Z,8.43
2023-01-18T01:54:26.967Z,8.45
2023-01-18T01:57:00.629Z,8.45
2023-01-18T01:59:30.203Z,8.42
2023-01-18T02:01:57.434Z,8.36
2023-01-18T02:04:29.555Z,8.48
2023-01-18T02:06:58.821Z,8.39
2023-01-18T02:09:28.656Z,8.31
2023-01-18T02:11:58.227Z,8.32
2023-01-18T02:14:27.402Z,8.26
2023-01-18T02:17:12.509Z,8.15
2023-01-18T02:20:11.365Z,8.12
2023-01-18T02:23:20.465Z,8.12
2023-01-18T02:25:56.501Z,8.09
2023-01-18T02:28:36.564Z,8.11
2023-01-18T02:31:12.085Z,8.12
2023-01-18T02:34:10.141Z,8.04
2023-01-18T02:36:59.459Z,8.09
2023-01-18T02:39:44.276Z,8.07
2023-01-18T02:42:45.699Z,8.07
2023-01-18T02:45:44.158Z,8.02
2023-01-18T02:48:11.834Z,8.09
2023-01-18T02:50:39.345Z,8.15
2023-01-18T02:53:06.533Z,8.20
2023-01-18T02:55:45.530Z,8.18
2023-01-18T02:58:32.864Z,8.25
2023-01-18T03:01:06.863Z,8.20
2023-01-18T03:03:35.371Z,8.20
2023-01-18T03:06:08.569Z,8.14
2023-01-18T03:08:41.135Z,8.14
2023-01-18T03:11:33.207Z,8.18
2023-01-18T03:14:22.579Z,8.15
2023-01-18T03:16:58.968Z,8.15
2023-01-18T03:20:05.786Z,8.24
2023-01-18T03:23:14.128Z,8.15
2023-01-18T03:25:46.681Z,8.14
2023-01-18T03:28:36.902Z,8.14
2023-01-18T03:31:26.700Z,8.14
2023-01-18T03:34:00.409Z,8.21
2023-01-18T03:36:32.201Z,8.29
2023-01-18T03:39:13.336Z,8.26
2023-01-18T03:41:46.133Z,8.28
2023-01-18T03:44:33.680Z,8.24
2023-01-18T03:47:03.154Z,8.25
2023-01-18T03:49:32.287Z,8.34
2023-01-18T03:52:02.102Z,8.34
2023-01-18T03:54:46.877Z,8.41
2023-01-18T03:57:29.981Z,8.41
2023-01-18T04:00:00.721Z,8.38
2023-01-18T04:02:28.322Z,8.35
2023-01-18T04:04:57.787Z,8.38
2023-01-18T04:07:26.112Z,8.41
2023-01-18T04:09:53.478Z,8.36
2023-01-18T04:12:20.720Z,8.36
2023-01-18T04:14:50.213Z,8.46
2023-01-18T04:17:20.001Z,8.49
2023-01-18T04:19:47.145Z,8.57
2023-01-18T04:22:17.102Z,8.67
2023-01-18T04:24:44.550Z,8.69
2023-01-18T04:27:14.335Z,8.69
2023-01-18T04:29:43.688Z,8.73
2023-01-18T04:32:14.064Z,8.73
2023-01-18T04:34:41.325Z,8.76
2023-01-18T04:37:08.737Z,8.76
2023-01-18T04:39:35.850Z,8.73
2023-01-18T04:42:05.406Z,8.81
2023-01-18T04:44:34.808Z,8.90
2023-01-18T04:47:04.470Z,8.96
2023-01-18T04:49:34.132Z,9.15
2023-01-18T04:52:01.391Z,9.30
2023-01-18T04:54:28.717Z,9.41
2023-01-18T04:56:55.865Z,9.49
2023-01-18T04:59:23.045Z,9.58
2023-01-18T05:01:52.892Z,9.52
2023-01-18T05:04:21.009Z,9.30
2023-01-18T05:06:53.035Z,8.87
2023-01-18T05:09:20.242Z,8.59
2023-01-18T05:11:47.450Z,8.48
2023-01-18T05:14:14.781Z,8.35
2023-01-18T05:16:44.495Z,8.21
2023-01-18T05:19:13.967Z,7.86
2023-01-18T05:21:41.490Z,7.63
2023-01-18T05:24:08.705Z,7.67
2023-01-18T05:26:36.457Z,7.56
2023-01-18T05:29:03.755Z,7.43
2023-01-18T05:31:31.007Z,7.43
2023-01-18T05:33:58.352Z,7.39
2023-01-18T05:36:27.942Z,7.19
2023-01-18T05:38:58.021Z,7.23
2023-01-18T05:41:25.229Z,7.28
2023-01-18T05:43:54.434Z,7.07
2023-01-18T05:46:21.592Z,6.98
2023-01-18T05:48:50.922Z,7.18
2023-01-18T05:51:20.237Z,7.19
2023-01-18T05:53:47.430Z,7.18
2023-01-18T05:56:17.026Z,7.18
2023-01-18T05:58:46.579Z,7.14
2023-01-18T06:01:16.204Z,7.14
2023-01-18T06:03:43.531Z,7.08
2023-01-18T06:06:10.829Z,6.95
2023-01-18T06:08:40.251Z,7.01
2023-01-18T06:11:07.860Z,7.07
2023-01-18T06:13:35.184Z,6.88
2023-01-18T06:16:05.164Z,6.94
2023-01-18T06:18:33.417Z,7.05
2023-01-18T06:21:03.220Z,6.91
2023-01-18T06:23:32.719Z,6.85
2023-01-18T06:25:59.989Z,6.92
2023-01-18T06:28:30.819Z,6.88
2023-01-18T06:30:58.517Z,6.91
2023-01-18T06:33:25.790Z,6.94
2023-01-18T06:35:53.019Z,6.94
2023-01-18T06:38:23.246Z,6.81
2023-01-18T06:40:52.737Z,6.87
2023-01-18T06:43:19.963Z,6.80
2023-01-18T06:45:56.900Z,6.87
2023-01-18T06:48:25.205Z,6.84
2023-01-18T06:50:53.192Z,6.71
2023-01-18T06:53:22.867Z,6.77
2023-01-18T06:56:01.890Z,6.71
2023-01-18T06:58:35.764Z,6.71
2023-01-18T07:01:03.921Z,6.73
2023-01-18T07:03:31.500Z,6.80
2023-01-18T07:06:01.357Z,6.79
2023-01-18T07:08:31.639Z,6.88
2023-01-18T07:10:59.621Z,6.88
2023-01-18T07:13:27.107Z,6.95
2023-01-18T07:16:00.991Z,6.92
2023-01-18T07:18:30.553Z,6.88
2023-01-18T07:20:58.508Z,6.92
2023-01-18T07:23:26.885Z,6.95
2023-01-18T07:26:12.136Z,6.95
2023-01-18T07:28:39.463Z,7.01
2023-01-18T07:31:08.217Z,7.04
2023-01-18T07:33:38.410Z,7.05
2023-01-18T07:36:07.398Z,7.07
2023-01-18T07:38:34.604Z,7.12
2023-01-18T07:41:04.040Z,7.25
2023-01-18T07:43:33.863Z,7.23
2023-01-18T07:46:04.080Z,7.30
2023-01-18T07:48:34.213Z,7.42
2023-01-18T07:51:07.260Z,7.42
2023-01-18T07:53:36.509Z,7.53
2023-01-18T07:56:09.176Z,7.65
2023-01-18T07:58:36.432Z,7.70
2023-01-18T08:01:07.339Z,7.73
2023-01-18T08:03:36.433Z,7.80
2023-01-18T08:06:07.303Z,7.83
2023-01-18T08:08:36.120Z,7.69
2023-01-18T08:11:05.473Z,7.65
2023-01-18T08:13:33.244Z,7.43
2023-01-18T08:16:05.336Z,7.43
2023-01-18T08:18:32.893Z,7.39
2023-01-18T08:21:00.210Z,7.40
2023-01-18T08:23:27.507Z,7.43
2023-01-18T08:25:55.492Z,7.38
2023-01-18T08:28:23.103Z,7.39
2023-01-18T08:30:50.359Z,7.32
2023-01-18T08:33:20.133Z,7.33
2023-01-18T08:35:48.020Z,7.42
2023-01-18T08:38:16.543Z,7.45
2023-01-18T08:40:43.731Z,7.50
2023-01-18T08:43:13.524Z,7.56
2023-01-18T08:45:40.763Z,7.52
2023-01-18T08:48:11.825Z,7.55
2023-01-18T08:50:43.095Z,7.60
2023-01-18T08:53:14.885Z,7.66
2023-01-18T08:55:42.031Z,7.74
2023-01-18T08:58:09.240Z,7.93
2023-01-18T09:00:38.526Z,7.90
2023-01-18T09:03:06.842Z,7.99
2023-01-18T09:05:36.745Z,8.14
2023-01-18T09:08:06.423Z,8.28
2023-01-18T09:10:37.541Z,8.38
2023-01-18T09:13:05.944Z,8.46
2023-01-18T09:15:33.201Z,8.49
2023-01-18T09:18:05.886Z,8.59
2023-01-18T09:20:36.092Z,8.69
2023-01-18T09:23:07.126Z,8.77
2023-01-18T09:25:37.822Z,8.81
2023-01-18T09:28:05.593Z,8.87
2023-01-18T09:30:35.997Z,9.03
2023-01-18T09:33:03.333Z,9.18
2023-01-18T09:35:30.655Z,9.12
2023-01-18T09:37:57.957Z,9.25
2023-01-18T09:40:38.114Z,9.39
2023-01-18T09:43:16.120Z,9.39
2023-01-18T09:45:46.881Z,9.36
2023-01-18T09:48:28.093Z,9.22
2023-01-18T09:50:59.161Z,9.18
2023-01-18T09:53:29.105Z,9.24
2023-01-18T09:56:22.052Z,9.24
2023-01-18T09:59:10.380Z,9.28
2023-01-18T10:01:38.736Z,9.34
2023-01-18T10:04:08.840Z,9.38
2023-01-18T10:06:54.005Z,9.46
2023-01-18T10:09:27.198Z,9.49
2023-01-18T10:11:59.755Z,9.55
2023-01-18T10:14:53.110Z,9.59
2023-01-18T10:17:24.133Z,9.63
2023-01-18T10:19:51.921Z,9.68
2023-01-18T10:22:25.215Z,9.73
2023-01-18T10:25:22.977Z,9.89
2023-01-18T10:28:27.719Z,9.90
2023-01-18T10:31:15.492Z,9.91
2023-01-18T10:33:44.612Z,9.87
2023-01-18T10:36:13.975Z,9.90
2023-01-18T10:38:45.460Z,9.93
2023-01-18T10:41:20.173Z,9.97
2023-01-18T10:43:47.626Z,10.03
2023-01-18T10:46:19.818Z,10.11
2023-01-18T10:49:20.181Z,10.18
2023-01-18T10:52:12.459Z,10.20
2023-01-18T10:54:40.533Z,10.18
2023-01-18T10:57:20.463Z,10.27
2023-01-18T10:59:52.740Z,10.27
2023-01-18T11:02:27.450Z,10.31
2023-01-18T11:04:59.375Z,10.38
2023-01-18T11:07:29.736Z,10.44
2023-01-18T11:09:59.619Z,10.48
2023-01-18T11:12:56.302Z,10.48
2023-01-18T11:15:26.945Z,10.59
2023-01-18T11:17:58.039Z,10.66
2023-01-18T11:20:36.817Z,10.71
2023-01-18T11:23:17.764Z,10.71
2023-01-18T11:25:52.607Z,10.71
2023-01-18T11:28:21.575Z,10.75
2023-01-18T11:31:21.124Z,10.75
2023-01-18T11:34:01.683Z,10.82
2023-01-18T11:36:37.707Z,10.88
2023-01-18T11:39:29.265Z,10.91
2023-01-18T11:42:13.863Z,10.95
2023-01-18T11:44:50.773Z,10.89
2023-01-18T11:47:29.003Z,10.97
2023-01-18T11:50:10.342Z,11.00
2023-01-18T11:52:48.958Z,11.06
2023-01-18T11:55:32.505Z,11.06
2023-01-18T11:58:05.248Z,11.11
2023-01-18T12:00:45.756Z,11.14
2023-01-18T12:03:40.199Z,11.13
2023-01-18T12:06:24.150Z,11.06
2023-01-18T12:09:03.676Z,11.07
2023-01-18T12:11:48.236Z,11.16
2023-01-18T12:14:34.129Z,11.19
2023-01-18T12:17:14.066Z,11.17
2023-01-18T12:19:58.647Z,11.20
2023-01-18T12:22:31.955Z,11.26
2023-01-18T12:25:04.560Z,11.30
2023-01-18T12:27:40.422Z,11.27
2023-01-18T12:30:15.865Z,11.44
2023-01-18T12:33:06.626Z,11.42
2023-01-18T12:36:07.413Z,11.42
2023-01-18T12:38:36.176Z,11.51
2023-01-18T12:41:21.603Z,11.55
2023-01-18T12:44:00.962Z,11.57
2023-01-18T12:47:03.079Z,11.55
2023-01-18T12:49:36.529Z,11.61
2023-01-18T12:52:18.430Z,11.61
2023-01-18T12:54:52.277Z,11.57
2023-01-18T12:57:21.359Z,11.55
2023-01-18T12:59:57.586Z,11.61
2023-01-18T13:02:36.935Z,11.57
2023-01-18T13:05:35.501Z,11.55
2023-01-18T13:08:16.834Z,11.58
2023-01-18T13:10:47.664Z,11.58
2023-01-18T13:13:19.945Z,11.55
2023-01-18T13:15:47.114Z,11.48
2023-01-18T13:18:42.512Z,11.42
2023-01-18T13:21:31.580Z,11.30
2023-01-18T13:24:11.462Z,11.24
2023-01-18T13:26:38.908Z,11.27
2023-01-18T13:29:23.027Z,11.34
2023-01-18T13:31:50.895Z,11.32
2023-01-18T13:34:28.821Z,11.35
2023-01-18T13:37:13.517Z,11.32
2023-01-18T13:39:47.833Z,11.37
2023-01-18T13:42:20.800Z,11.42
2023-01-18T13:44:50.152Z,11.48
2023-01-18T13:47:35.685Z,11.52
2023-01-18T13:50:03.119Z,11.61
2023-01-18T13:52:31.086Z,11.61
2023-01-18T13:55:04.051Z,11.58
2023-01-18T13:57:33.540Z,11.62
2023-01-18T14:00:02.388Z,11.64
2023-01-18T14:02:42.429Z,11.62
2023-01-18T14:05:43.838Z,11.68
2023-01-18T14:08:22.231Z,11.81
2023-01-18T14:10:53.059Z,11.77
2023-01-18T14:13:46.088Z,11.82
2023-01-18T14:16:19.349Z,11.88
2023-01-18T14:18:55.405Z,11.77
2023-01-18T14:21:54.252Z,11.82
2023-01-18T14:24:43.341Z,11.90
2023-01-18T14:27:20.619Z,11.96
2023-01-18T14:30:05.064Z,11.92
2023-01-18T14:32:38.981Z,11.88
2023-01-18T14:35:25.422Z,11.86
2023-01-18T14:38:16.775Z,11.90
2023-01-18T14:40:49.125Z,11.83
2023-01-18T14:43:32.201Z,11.77
2023-01-18T14:46:09.930Z,11.59
2023-01-18T14:48:52.116Z,11.54
2023-01-18T14:51:23.207Z,11.45
2023-01-18T14:53:54.273Z,11.47
2023-01-18T14:56:30.318Z,11.48
2023-01-18T14:59:27.498Z,11.28
2023-01-18T15:02:00.043Z,11.24
2023-01-18T15:04:33.007Z,11.26
2023-01-18T15:07:02.120Z,11.24
2023-01-18T15:09:32.732Z,11.19
2023-01-18T15:12:05.983Z,11.16
2023-01-18T15:14:37.809Z,11.16
2023-01-18T15:17:21.337Z,11.10
2023-01-18T15:19:53.062Z,11.03
2023-01-18T15:22:29.703Z,11.10
2023-01-18T15:24:58.763Z,10.89
2023-01-18T15:27:29.109Z,10.80
2023-01-18T15:30:00.358Z,10.80
2023-01-18T15:32:31.449Z,10.77
2023-01-18T15:35:00.206Z,10.73
2023-01-18T15:37:32.589Z,10.80
2023-01-18T15:40:21.333Z,10.72
2023-01-18T15:42:58.002Z,10.71
2023-01-18T15:45:38.732Z,10.66
2023-01-18T15:48:18.674Z,10.72
2023-01-18T15:50:53.794Z,10.69
2023-01-18T15:53:30.318Z,10.65
2023-01-18T15:56:03.451Z,10.65
2023-01-18T15:58:46.069Z,10.56
2023-01-18T16:01:13.378Z,10.52
2023-01-18T16:03:45.549Z,10.41
2023-01-18T16:06:16.874Z,10.24
2023-01-18T16:08:56.889Z,10.14
2023-01-18T16:11:31.386Z,10.04
2023-01-18T16:14:07.682Z,10.03
2023-01-18T16:16:40.807Z,10.04
2023-01-18T16:19:17.272Z,9.98
2023-01-18T16:21:50.146Z,9.94
2023-01-18T16:24:22.861Z,9.91
2023-01-18T16:26:50.296Z,9.91
2023-01-18T16:29:17.865Z,9.82
2023-01-18T16:31:45.594Z,9.75
2023-01-18T16:34:28.023Z,9.77
2023-01-18T16:36:57.919Z,9.76
2023-01-18T16:39:25.250Z,9.63
2023-01-18T16:41:59.878Z,9.52
2023-01-18T16:44:29.723Z,9.50
2023-01-18T16:46:57.165Z,9.45
2023-01-18T16:49:27.118Z,9.38
2023-01-18T16:51:54.733Z,9.34
2023-01-18T16:54:22.211Z,9.34
2023-01-18T16:56:50.092Z,9.31
2023-01-18T16:59:21.834Z,9.34
2023-01-18T17:01:49.884Z,9.27
2023-01-18T17:04:17.875Z,9.24
2023-01-18T17:06:47.517Z,9.24
2023-01-18T17:09:24.413Z,9.28
2023-01-18T17:11:52.450Z,9.27
2023-01-18T17:14:22.152Z,9.30
2023-01-18T17:16:49.672Z,9.28
2023-01-18T17:19:19.594Z,9.28
2023-01-18T17:21:48.451Z,9.27
2023-01-18T17:24:17.049Z,9.38
2023-01-18T17:26:46.449Z,9.42
2023-01-18T17:29:18.068Z,9.45
2023-01-18T17:31:52.180Z,9.52
2023-01-18T17:34:28.204Z,9.42
2023-01-18T17:37:03.219Z,9.43
2023-01-18T17:39:43.965Z,9.43
2023-01-18T17:42:14.298Z,9.63
2023-01-18T17:44:43.726Z,9.60
2023-01-18T17:47:13.494Z,9.73
2023-01-18T17:49:42.990Z,9.80
2023-01-18T17:52:10.180Z,9.89
2023-01-18T17:54:37.395Z,9.89
2023-01-18T17:57:06.923Z,9.80
2023-01-18T17:59:34.191Z,9.76
2023-01-18T18:02:01.404Z,9.65
2023-01-18T18:04:33.005Z,9.68
2023-01-18T18:07:00.326Z,9.76
2023-01-18T18:09:29.914Z,9.83
2023-01-18T18:11:57.486Z,9.80
2023-01-18T18:17:11.408Z,9.63
2023-01-18T18:19:38.626Z,9.50
2023-01-18T18:22:07.946Z,9.43
2023-01-18T18:24:35.067Z,9.36
2023-01-18T18:27:04.497Z,9.34
2023-01-18T18:29:33.910Z,9.38
2023-01-18T18:32:01.102Z,9.17
2023-01-18T18:34:30.186Z,8.85
2023-01-18T18:36:57.441Z,8.79
2023-01-18T18:44:59.067Z,8.59
2023-01-18T18:47:26.374Z,8.35
2023-01-18T18:49:53.533Z,8.53
2023-01-18T18:52:23.219Z,8.56
2023-01-18T18:54:50.401Z,8.50
2023-01-18T18:57:19.879Z,8.46
2023-01-18T18:59:47.020Z,8.45
2023-01-18T19:02:16.220Z,8.31
2023-01-18T19:04:43.499Z,8.46
2023-01-18T19:07:10.705Z,8.35
2023-01-18T19:09:38.133Z,8.34
2023-01-18T19:12:05.510Z,8.41
2023-01-18T19:14:32.709Z,8.32
2023-01-18T19:17:00.234Z,8.31
2023-01-18T19:19:27.370Z,8.29
2023-01-18T19:21:54.628Z,8.28
2023-01-18T19:24:24.947Z,8.38
2023-01-18T19:26:52.222Z,8.48
2023-01-18T19:29:19.742Z,8.24
2023-01-18T19:31:47.084Z,8.38
2023-01-18T19:34:16.540Z,8.41
2023-01-18T19:36:46.054Z,8.41
2023-01-18T19:39:21.849Z,8.42
2023-01-18T19:41:49.898Z,8.26
2023-01-18T19:44:17.145Z,8.29
2023-01-18T19:46:44.378Z,8.36
2023-01-18T19:49:11.529Z,8.36
2023-01-18T19:51:41.291Z,8.35
2023-01-18T19:54:11.048Z,8.34
2023-01-18T19:56:38.512Z,8.36
2023-01-18T19:59:05.815Z,8.31
2023-01-18T20:01:37.270Z,8.36
2023-01-18T20:04:08.250Z,8.31
2023-01-18T20:06:38.448Z,8.28
2023-01-18T20:09:17.849Z,8.25
2023-01-18T20:11:46.445Z,8.28
2023-01-18T20:14:13.729Z,8.34
2023-01-18T20:16:45.990Z,8.09
2023-01-18T20:19:17.738Z,8.12
2023-01-18T20:21:45.359Z,8.12
2023-01-18T20:24:12.571Z,7.95
2023-01-18T20:26:42.385Z,8.14
2023-01-18T20:29:10.118Z,8.21
2023-01-18T20:31:39.232Z,8.14
2023-01-18T20:34:07.823Z,8.14
2023-01-18T20:36:36.176Z,8.09
2023-01-18T20:39:09.209Z,8.20
2023-01-18T20:41:36.430Z,8.21
2023-01-18T20:44:05.812Z,8.12
2023-01-18T20:46:33.025Z,8.12
2023-01-18T20:49:03.598Z,8.14
2023-01-18T20:51:31.517Z,8.15
2023-01-18T20:53:59.037Z,8.08
2023-01-18T20:56:29.577Z,8.11
2023-01-18T20:58:59.538Z,8.15
2023-01-18T21:01:32.285Z,8.24
2023-01-18T21:04:01.631Z,8.21
2023-01-18T21:06:31.621Z,8.14
2023-01-18T21:09:50.196Z,8.11
2023-01-18T21:12:20.607Z,8.09
2023-01-18T21:14:47.764Z,7.94
2023-01-18T21:17:15.071Z,8.05
2023-01-18T21:19:47.431Z,7.88
2023-01-18T21:22:15.177Z,7.88
2023-01-18T21:24:42.406Z,7.62
2023-01-18T21:27:09.547Z,7.69
2023-01-18T21:29:37.018Z,7.86
2023-01-18T21:32:31.918Z,7.90
2023-01-18T21:34:59.075Z,7.87
2023-01-18T21:37:27.418Z,7.90
2023-01-18T21:39:54.662Z,7.91
2023-01-18T21:42:40.472Z,7.76
2023-01-18T21:45:31.123Z,7.70
2023-01-18T21:47:59.899Z,7.81
2023-01-18T21:51:10.632Z,7.83
2023-01-18T21:53:56.607Z,7.88
2023-01-18T21:56:25.998Z,7.98
2023-01-18T21:58:53.164Z,7.80
2023-01-18T22:01:34.383Z,8.05
2023-01-18T22:04:27.261Z,8.09
2023-01-18T22:07:00.354Z,8.02
2023-01-18T22:09:31.218Z,7.94
2023-01-18T22:11:58.578Z,7.84
2023-01-18T22:14:26.658Z,7.98
2023-01-18T22:16:53.987Z,8.04
2023-01-18T22:19:21.545Z,7.98
2023-01-18T22:21:51.638Z,8.08
2023-01-18T22:24:19.048Z,7.93
2023-01-18T22:26:46.297Z,7.97
2023-01-18T22:29:15.930Z,7.63
2023-01-18T22:31:43.179Z,7.70
2023-01-18T22:34:19.288Z,7.76
2023-01-18T22:36:46.495Z,7.93
2023-01-18T22:39:14.462Z,7.70
2023-01-18T22:41:42.228Z,7.60
2023-01-18T22:44:10.921Z,7.63
2023-01-18T22:46:40.245Z,7.69
2023-01-18T22:49:07.440Z,7.71
2023-01-18T22:51:36.969Z,7.78
2023-01-18T22:54:04.232Z,7.76
2023-01-18T22:56:31.588Z,7.71
2023-01-18T22:58:59.986Z,7.57
2023-01-18T23:01:32.204Z,7.67
2023-01-18T23:04:02.729Z,7.60
2023-01-18T23:06:42.293Z,7.67
2023-01-18T23:09:13.183Z,7.60
2023-01-18T23:11:42.704Z,7.67
2023-01-18T23:14:28.411Z,7.55
2023-01-18T23:17:13.975Z,7.74
2023-01-18T23:19:43.548Z,7.74
2023-01-18T23:22:12.843Z,7.78
2023-01-18T23:24:40.123Z,7.80
2023-01-18T23:27:10.203Z,7.80
2023-01-18T23:29:39.923Z,7.66
2023-01-18T23:32:09.462Z,7.66
2023-01-18T23:34:36.741Z,7.59
2023-01-18T23:37:03.962Z,7.71
2023-01-18T23:39:49.641Z,7.83
2023-01-18T23:42:35.017Z,7.83
2023-01-18T23:45:23.201Z,7.88
2023-01-18T23:48:11.671Z,7.91
2023-01-18T23:50:57.250Z,7.99
2023-01-18T23:53:43.024Z,7.73
2023-01-18T23:56:10.255Z,7.93
2023-01-18T23:58:40.605Z,7.95
